ADDS METAR Data INFO
IDs: Format: Raw Decoded Include TAF

Data at: 1911 UTC 23 Apr 2018

KPUB 231853Z 14009KT 10SM CLR 19/03 A3004 RMK AO2 SLP139 T01940028
KPUB 231753Z 10SM CLR 17/03 A3008 RMK AO2 SLP158 T01670033 10172 20022 58013
KPUB 231653Z 11004KT 10SM CLR 14/03 A3010 RMK AO2 SLP166 T01390028
KPUB 231553Z 00000KT 10SM CLR 11/02 A3011 RMK AO2 SLP176 T01060022
KPUB 231453Z 15003KT 10SM CLR 08/02 A3012 RMK AO2 SLP181 T00830017 58003
KPUB 231353Z 00000KT 10SM CLR 06/01 A3014 RMK AO2 SLP186 T00610011
KPUB 231253Z 00000KT 10SM CLR 04/01 A3013 RMK AO2 SLP184 T00440011
KPUB 231153Z AUTO 00000KT 10SM CLR 03/01 A3013 RMK AO2 SLP181 T00330006 10072 20028 55004
KPUB 231053Z AUTO 01005KT 10SM CLR 04/01 A3013 RMK AO2 SLP179 T00390006
KPUB 230953Z AUTO 01005KT 10SM CLR 04/01 A3014 RMK AO2 SLP180 T00390006
KPUB 230853Z AUTO 35008KT 10SM CLR 04/01 A3015 RMK AO2 SLP182 T00440006 58009
KPUB 230753Z AUTO 04004KT 10SM CLR 06/01 A3017 RMK AO2 SLP186 T00610011
KPUB 230653Z AUTO 05007KT 10SM SCT110 07/02 A3018 RMK AO2 SLP192 T00720017 401940011
KPUB 230553Z AUTO 36004KT 10SM CLR 06/01 A3018 RMK AO2 SLP201 T00610006 10172 20061 50008
KPUB 230453Z AUTO 06003KT 10SM CLR 08/01 A3018 RMK AO2 SLP204 T00780011
KPUB 230353Z AUTO 07007KT 10SM CLR 09/02 A3017 RMK AO2 SLP203 T00940017
KPUB 230253Z 09008KT 10SM SCT120 11/02 A3015 RMK AO2 SLP197 T01060017 53019
KPUB 230153Z 11012KT 10SM CLR 13/03 A3012 RMK AO2 SLP183 T01280028
KPUB 230053Z 11015KT 10SM CLR 16/03 A3010 RMK AO2 SLP171 T01560033
KPUB 222353Z 12016KT 10SM CLR 17/03 A3009 RMK AO2 SLP163 T01720033 10194 20133 55002
KPUB 222253Z 11014G22KT 10SM CLR 18/04 A3008 RMK AO2 SLP159 T01830039
KPUB 222153Z 11014G21KT 10SM CLR 18/04 A3008 RMK AO2 SLP162 T01830039
KPUB 222053Z 12012KT 10SM CLR 18/03 A3010 RMK AO2 SLP170 T01830033 56018
KPUB 221953Z 14013KT 10SM CLR 19/03 A3010 RMK AO2 SLP166 T01890028
KPUB 221853Z 14010G16KT 10SM CLR 17/03 A3013 RMK AO2 SLP177 T01670028
KPUB 221753Z 00000KT 10SM CLR 13/03 A3016 RMK AO2 SLP191 T01280028 10128 20039 58015
KPUB 221653Z 10SM CLR 10/03 A3019 RMK AO2 SLP206 T01000033
KPUB 221611Z 00000KT 9SM SCT012 08/03 A3020 RMK AO2 T00780033
KPUB 221553Z 00000KT 8SM BKN011 07/03 A3020 RMK AO2 SLP216 T00670033
KPUB 221542Z 00000KT 8SM OVC010 07/03 A3020 RMK AO2 T00670033
KPUB 221453Z 14003KT 7SM OVC008 05/03 A3021 RMK AO2 SLP221 T00500033 51007
KPUB 221353Z 14004KT 6SM BR OVC005 04/03 A3020 RMK AO2 SLP218 T00440033
KPUB 221340Z 15004KT 5SM BR OVC005 04/03 A3020 RMK AO2 T00390033
KPUB 221253Z 24003KT 4SM BR OVC003 04/03 A3019 RMK AO2 SLP216 T00390033
KPUB 221246Z 3SM BR OVC003 04/03 A3019 RMK AO2 T00390033
KPUB 221153Z AUTO 21004KT 10SM OVC006 04/03 A3018 RMK AO2 SLP211 70007 T00440033 10067 20011 51001
KPUB 221053Z AUTO 00000KT 10SM OVC006 04/03 A3018 RMK AO2 SLP210 T00440028
KPUB 220953Z AUTO 09004KT 10SM OVC006 04/03 A3018 RMK AO2 CIG 005V010 SLP212 T00390033
KPUB 220926Z AUTO 07007KT 10SM BKN006 03/02 A3018 RMK AO2 T00330022
KPUB 220918Z AUTO 07006KT 10SM SCT006 02/01 A3018 RMK AO2 T00220011
KPUB 220853Z AUTO 05006KT 10SM CLR 02/01 A3018 RMK AO2 SLP215 T00170006 55007
KPUB 220753Z AUTO 07004KT 10SM FEW008 SCT095 04/02 A3018 RMK AO2 SLP213 T00390022
KPUB 220725Z AUTO 10005KT 10SM SCT009 BKN095 04/03 A3018 RMK AO2 T00440028